createdAt,value
2023-01-30T00:01:30.087Z,16.82
2023-01-30T00:04:21.570Z,16.45
2023-01-30T00:07:21.422Z,15.70
2023-01-30T00:10:16.965Z,16.12
2023-01-30T00:13:09.280Z,15.98
2023-01-30T00:16:04.143Z,15.25
2023-01-30T00:18:56.634Z,15.25
2023-01-30T00:21:48.300Z,14.90
2023-01-30T00:24:39.842Z,15.65
2023-01-30T00:27:34.714Z,16.17
2023-01-30T00:30:27.846Z,16.93
2023-01-30T00:33:22.427Z,15.25
2023-01-30T00:36:15.877Z,16.00
2023-01-30T00:39:07.502Z,15.53
2023-01-30T00:42:16.632Z,16.07
2023-01-30T00:45:28.613Z,15.18
2023-01-30T00:48:19.635Z,16.37
2023-01-30T00:51:11.278Z,16.02
2023-01-30T00:54:02.587Z,17.20
2023-01-30T00:56:55.328Z,17.23
2023-01-30T00:59:49.696Z,17.25
2023-01-30T01:02:42.082Z,17.17
2023-01-30T01:05:34.695Z,17.48
2023-01-30T01:08:27.867Z,17.85
2023-01-30T01:11:25.315Z,16.95
2023-01-30T01:14:18.525Z,17.77
2023-01-30T01:17:11.107Z,17.30
2023-01-30T01:20:02.824Z,18.02
2023-01-30T01:22:57.450Z,17.23
2023-01-30T01:25:51.311Z,17.35
2023-01-30T01:28:51.859Z,17.23
2023-01-30T01:31:45.686Z,18.40
2023-01-30T01:34:37.311Z,16.73
2023-01-30T01:37:29.871Z,18.05
2023-01-30T01:40:41.105Z,17.75
2023-01-30T01:43:34.652Z,17.45
2023-01-30T01:46:29.279Z,16.87
2023-01-30T01:49:24.524Z,17.55
2023-01-30T01:55:00.978Z,17.82
2023-01-30T01:57:55.912Z,17.48
2023-01-30T02:03:35.797Z,21.50
2023-01-30T02:06:27.656Z,18.60
2023-01-30T02:09:18.738Z,18.02
2023-01-30T02:12:11.674Z,17.00
2023-01-30T02:15:05.562Z,16.85
2023-01-30T02:18:00.374Z,17.37
2023-01-30T02:25:14.572Z,16.50
2023-01-30T02:28:30.088Z,16.52
2023-01-30T02:31:28.960Z,17.73
2023-01-30T02:34:31.613Z,17.67
2023-01-30T02:37:31.523Z,16.25
2023-01-30T02:40:33.681Z,16.77
2023-01-30T02:43:30.319Z,17.02
2023-01-30T02:46:25.779Z,17.00
2023-01-30T02:49:20.378Z,17.45
2023-01-30T02:52:14.134Z,17.12
2023-01-30T02:55:11.950Z,16.40
2023-01-30T02:58:05.145Z,17.40
2023-01-30T03:01:19.233Z,16.07
2023-01-30T03:04:28.647Z,15.68
2023-01-30T03:07:31.339Z,16.07
2023-01-30T03:10:27.000Z,17.15
2023-01-30T03:13:23.481Z,16.65
2023-01-30T03:16:19.872Z,16.67
2023-01-30T03:21:57.647Z,16.80
2023-01-30T03:24:49.659Z,16.12
2023-01-30T03:27:42.447Z,16.27
2023-01-30T03:30:34.212Z,15.90
2023-01-30T03:33:27.069Z,16.25
2023-01-30T03:36:20.160Z,16.27
2023-01-30T03:39:11.983Z,16.67
2023-01-30T03:42:04.252Z,16.48
2023-01-30T03:47:37.090Z,15.68
2023-01-30T03:50:30.410Z,16.50
2023-01-30T03:53:22.250Z,16.85
2023-01-30T03:56:14.414Z,16.95
2023-01-30T03:59:06.144Z,17.05
2023-01-30T04:02:02.053Z,17.55
2023-01-30T04:04:54.887Z,17.90
2023-01-30T04:07:46.985Z,16.32
2023-01-30T04:10:38.491Z,16.67
2023-01-30T04:13:29.756Z,16.10
2023-01-30T04:16:22.927Z,15.83
2023-01-30T04:19:25.520Z,16.37
2023-01-30T04:22:28.744Z,15.55
2023-01-30T04:25:21.143Z,17.15
2023-01-30T04:28:12.810Z,16.75
2023-01-30T04:31:05.144Z,16.97
2023-01-30T04:34:10.308Z,17.65
2023-01-30T04:37:02.235Z,17.57
2023-01-30T04:39:54.365Z,18.07
2023-01-30T04:42:47.162Z,18.15
2023-01-30T04:48:39.731Z,19.02
2023-01-30T04:51:31.520Z,17.75
2023-01-30T04:54:24.838Z,18.40
2023-01-30T04:57:16.831Z,17.90
2023-01-30T05:00:13.149Z,18.82
2023-01-30T05:03:17.541Z,18.15
2023-01-30T05:06:09.776Z,18.20
2023-01-30T05:09:01.491Z,17.65
2023-01-30T05:11:52.979Z,17.82
2023-01-30T05:14:44.492Z,17.32
2023-01-30T05:17:36.168Z,16.60
2023-01-30T05:20:28.101Z,16.82
2023-01-30T05:23:19.484Z,16.37
2023-01-30T05:28:58.079Z,16.20
2023-01-30T05:31:49.510Z,16.87
2023-01-30T05:34:41.057Z,17.27
2023-01-30T05:37:32.561Z,17.90
2023-01-30T05:40:24.009Z,16.50
2023-01-30T05:43:15.670Z,16.90
2023-01-30T05:46:08.386Z,16.20
2023-01-30T05:49:00.244Z,16.60
2023-01-30T05:51:51.823Z,15.80
2023-01-30T05:54:45.115Z,16.57
2023-01-30T05:57:36.520Z,15.78
2023-01-30T06:00:28.335Z,16.87
2023-01-30T06:03:20.174Z,15.25
2023-01-30T06:06:14.635Z,15.78
2023-01-30T06:09:06.313Z,16.35
2023-01-30T06:11:57.891Z,16.17
2023-01-30T06:14:49.516Z,15.43
2023-01-30T06:17:45.005Z,15.68
2023-01-30T06:20:36.382Z,15.95
2023-01-30T06:23:29.938Z,15.05
2023-01-30T06:26:21.628Z,15.78
2023-01-30T06:29:13.550Z,16.05
2023-01-30T06:32:05.353Z,15.53
2023-01-30T06:35:04.117Z,16.48
2023-01-30T06:37:55.968Z,14.95
2023-01-30T06:40:52.169Z,15.20
2023-01-30T06:43:45.331Z,15.15
2023-01-30T06:46:38.686Z,16.37
2023-01-30T06:49:30.269Z,15.68
2023-01-30T06:52:22.125Z,15.60
2023-01-30T06:55:18.507Z,16.85
2023-01-30T06:58:12.492Z,15.78
2023-01-30T07:01:08.319Z,16.32
2023-01-30T07:04:02.263Z,15.30
2023-01-30T07:09:39.094Z,15.50
2023-01-30T07:12:31.031Z,14.90
2023-01-30T07:15:22.780Z,15.43
2023-01-30T07:18:14.591Z,16.07
2023-01-30T07:21:07.079Z,14.70
2023-01-30T07:23:59.788Z,14.78
2023-01-30T07:26:52.058Z,14.75
2023-01-30T07:29:43.924Z,15.00
2023-01-30T07:32:35.357Z,15.25
2023-01-30T07:35:29.172Z,15.70
2023-01-30T07:38:21.528Z,15.05
2023-01-30T07:41:13.132Z,14.80
2023-01-30T07:44:04.794Z,16.48
2023-01-30T07:46:56.274Z,16.30
2023-01-30T07:49:47.893Z,15.75
2023-01-30T07:52:42.105Z,15.60
2023-01-30T07:55:34.805Z,15.90
2023-01-30T07:58:26.523Z,16.27
2023-01-30T08:01:18.418Z,16.90
2023-01-30T08:04:10.010Z,16.10
2023-01-30T08:09:50.246Z,16.00
2023-01-30T08:12:43.776Z,15.18
2023-01-30T08:15:35.454Z,15.15
2023-01-30T08:18:27.496Z,14.95
2023-01-30T08:21:19.175Z,14.58
2023-01-30T08:24:11.536Z,15.25
2023-01-30T08:27:03.478Z,15.60
2023-01-30T08:29:55.171Z,15.58
2023-01-30T08:32:48.375Z,15.78
2023-01-30T08:35:41.343Z,15.13
2023-01-30T08:38:32.996Z,14.53
2023-01-30T08:41:24.757Z,14.78
2023-01-30T08:44:16.250Z,15.08
2023-01-30T08:47:07.880Z,15.68
2023-01-30T08:49:59.794Z,14.63
2023-01-30T08:52:51.698Z,14.03
2023-01-30T08:55:45.506Z,14.70
2023-01-30T08:58:37.170Z,15.83
2023-01-30T09:01:28.883Z,15.35
2023-01-30T09:04:20.679Z,16.25
2023-01-30T09:07:13.456Z,16.85
2023-01-30T09:10:05.344Z,15.15
2023-01-30T09:12:57.285Z,15.78
2023-01-30T09:15:48.720Z,16.15
2023-01-30T09:18:44.910Z,14.68
2023-01-30T09:21:39.423Z,15.70
2023-01-30T09:24:31.066Z,15.03
2023-01-30T09:27:22.580Z,15.35
2023-01-30T09:30:15.827Z,14.93
2023-01-30T09:35:50.174Z,15.83
2023-01-30T09:38:44.746Z,14.85
2023-01-30T09:41:47.557Z,15.93
2023-01-30T09:44:58.738Z,15.98
2023-01-30T09:47:54.575Z,15.70
2023-01-30T09:51:26.613Z,15.25
2023-01-30T09:54:24.678Z,13.00
2023-01-30T10:00:02.884Z,11.90
2023-01-30T10:03:01.309Z,11.70
2023-01-30T10:05:56.160Z,10.78
2023-01-30T10:08:55.986Z,12.80
2023-01-30T10:14:50.057Z,12.63
2023-01-30T10:20:35.837Z,12.43
2023-01-30T10:23:45.015Z,10.13
2023-01-30T10:26:37.045Z,12.45
2023-01-30T10:29:32.436Z,12.45
2023-01-30T10:32:29.185Z,12.50
2023-01-30T10:35:27.145Z,12.00
2023-01-30T10:38:22.436Z,12.40
2023-01-30T10:41:27.599Z,12.13
2023-01-30T10:44:24.372Z,12.18
2023-01-30T10:47:47.075Z,11.70
2023-01-30T10:50:57.466Z,11.80
2023-01-30T10:53:52.662Z,10.78
2023-01-30T10:56:47.867Z,12.10
2023-01-30T11:02:42.982Z,11.00
2023-01-30T11:05:43.449Z,11.63
2023-01-30T11:08:37.706Z,11.25
2023-01-30T11:11:32.943Z,10.98
2023-01-30T11:14:26.802Z,10.90
2023-01-30T11:17:19.881Z,9.48
2023-01-30T11:20:16.957Z,9.20
2023-01-30T11:23:11.370Z,10.90
2023-01-30T11:26:11.345Z,8.35
2023-01-30T11:32:13.120Z,10.75
2023-01-30T11:35:28.893Z,10.78
2023-01-30T11:38:26.290Z,9.83
2023-01-30T11:41:23.291Z,8.80
2023-01-30T11:44:15.259Z,6.55
2023-01-30T11:47:10.927Z,9.33
2023-01-30T11:50:11.642Z,6.95
2023-01-30T11:52:57.071Z,7.25
2023-01-30T11:56:02.559Z,7.97
2023-01-30T11:58:48.487Z,9.30
2023-01-30T12:01:40.535Z,10.10
2023-01-30T12:04:36.324Z,9.48
2023-01-30T12:07:30.052Z,9.33
2023-01-30T12:10:31.108Z,8.83
2023-01-30T12:13:26.936Z,9.53
2023-01-30T12:16:23.468Z,10.25
2023-01-30T12:22:07.751Z,6.67
2023-01-30T12:25:06.291Z,8.50
2023-01-30T12:28:05.670Z,9.00
2023-01-30T12:30:59.563Z,8.43
2023-01-30T12:33:53.399Z,8.98
2023-01-30T12:36:48.513Z,9.63
2023-01-30T12:39:49.694Z,8.73
2023-01-30T12:43:06.767Z,9.28
2023-01-30T12:46:04.228Z,8.58
2023-01-30T12:49:12.244Z,9.65
2023-01-30T12:52:05.382Z,8.78
2023-01-30T12:57:46.222Z,9.18
2023-01-30T13:00:49.746Z,8.45
2023-01-30T13:03:44.767Z,8.50
2023-01-30T13:07:09.776Z,8.45
2023-01-30T13:10:16.682Z,8.70
2023-01-30T13:13:14.679Z,8.38
2023-01-30T13:16:09.518Z,8.23
2023-01-30T13:21:49.128Z,8.78
2023-01-30T13:24:54.151Z,9.40
2023-01-30T13:27:48.442Z,7.80
2023-01-30T13:30:42.921Z,8.20
2023-01-30T13:33:38.150Z,7.92
2023-01-30T13:36:32.948Z,7.30
2023-01-30T13:39:29.820Z,7.90
2023-01-30T13:42:28.744Z,6.87
2023-01-30T13:48:28.178Z,8.15
2023-01-30T13:51:43.186Z,7.97
2023-01-30T13:54:56.444Z,8.83
2023-01-30T13:57:55.129Z,7.95
2023-01-30T14:00:56.677Z,7.15
2023-01-30T14:03:51.379Z,7.25
2023-01-30T14:06:49.811Z,6.17
2023-01-30T14:09:44.522Z,5.15
2023-01-30T14:12:40.554Z,8.40
2023-01-30T14:15:32.369Z,8.35
2023-01-30T14:18:27.052Z,7.00
2023-01-30T14:21:21.564Z,6.53
2023-01-30T14:27:05.355Z,7.40
2023-01-30T14:30:01.347Z,5.90
2023-01-30T14:32:58.685Z,4.65
2023-01-30T14:39:40.958Z,7.15
2023-01-30T14:42:35.145Z,7.20
2023-01-30T14:48:44.708Z,7.10
2023-01-30T14:51:42.418Z,6.17
2023-01-30T14:54:48.089Z,5.70
2023-01-30T15:00:27.717Z,5.95
2023-01-30T15:03:23.050Z,7.28
2023-01-30T15:06:15.680Z,6.75
2023-01-30T15:09:12.365Z,6.20
2023-01-30T15:12:17.838Z,6.33
2023-01-30T15:15:17.577Z,5.83
2023-01-30T15:18:27.063Z,6.72
2023-01-30T15:21:29.908Z,7.17
2023-01-30T15:24:54.700Z,6.42
2023-01-30T15:27:56.414Z,7.05
2023-01-30T15:31:00.787Z,5.00
2023-01-30T15:33:54.387Z,7.12
2023-01-30T15:36:51.209Z,7.20
2023-01-30T15:39:43.170Z,7.12
2023-01-30T15:42:42.474Z,6.30
2023-01-30T15:45:40.814Z,6.47
2023-01-30T15:48:40.157Z,6.50
2023-01-30T15:51:35.771Z,6.75
2023-01-30T15:54:27.845Z,6.05
2023-01-30T15:57:26.897Z,6.97
2023-01-30T16:00:29.331Z,6.80
2023-01-30T16:03:24.588Z,7.17
2023-01-30T16:06:29.043Z,6.75
2023-01-30T16:12:43.400Z,5.25
2023-01-30T16:15:38.855Z,7.33
2023-01-30T16:18:34.822Z,6.35
2023-01-30T16:21:28.645Z,4.92
2023-01-30T16:24:28.291Z,6.80
2023-01-30T16:27:41.236Z,6.92
2023-01-30T16:30:33.042Z,4.80
2023-01-30T16:33:25.148Z,5.83
2023-01-30T16:36:36.459Z,4.72
2023-01-30T16:39:33.750Z,5.40
2023-01-30T16:42:28.311Z,5.83
2023-01-30T16:46:09.426Z,6.00
2023-01-30T16:49:06.528Z,6.37
2023-01-30T16:52:05.682Z,6.85
2023-01-30T16:55:03.961Z,6.47
2023-01-30T16:58:02.160Z,7.30
2023-01-30T17:00:56.914Z,7.15
2023-01-30T17:03:53.923Z,4.67
2023-01-30T17:06:48.847Z,6.70
2023-01-30T17:09:47.107Z,6.78
2023-01-30T17:12:47.379Z,5.75
2023-01-30T17:15:40.016Z,6.00
2023-01-30T17:18:52.570Z,5.10
2023-01-30T17:21:50.523Z,5.40
2023-01-30T17:24:44.451Z,5.33
2023-01-30T17:27:37.073Z,4.40
2023-01-30T17:30:29.150Z,5.47
2023-01-30T17:33:21.489Z,4.92
2023-01-30T17:36:17.497Z,5.72
2023-01-30T17:39:18.993Z,5.33
2023-01-30T17:42:13.860Z,4.40
2023-01-30T17:45:08.715Z,5.58
2023-01-30T17:48:02.604Z,5.40
2023-01-30T17:50:57.062Z,5.25
2023-01-30T17:53:49.129Z,5.78
2023-01-30T17:56:42.822Z,6.25
2023-01-30T17:59:34.699Z,5.53
2023-01-30T18:02:28.153Z,5.85
2023-01-30T18:05:24.006Z,5.20
2023-01-30T18:08:17.978Z,5.40
2023-01-30T18:11:14.423Z,5.95
2023-01-30T18:14:07.241Z,5.87
2023-01-30T18:17:02.892Z,6.92
2023-01-30T18:20:06.333Z,5.45
2023-01-30T18:23:03.797Z,6.30
2023-01-30T18:26:08.840Z,5.62
2023-01-30T18:29:04.541Z,2.80
2023-01-30T18:32:01.265Z,6.40
2023-01-30T18:35:08.366Z,6.40
2023-01-30T18:38:03.875Z,4.45
2023-01-30T18:41:00.383Z,4.67
2023-01-30T18:43:58.617Z,7.58
2023-01-30T18:47:14.395Z,6.95
2023-01-30T18:50:15.714Z,6.95
2023-01-30T18:53:12.216Z,7.42
2023-01-30T18:56:10.076Z,6.87
2023-01-30T18:59:07.229Z,5.42
2023-01-30T19:02:06.024Z,6.70
2023-01-30T19:05:07.867Z,6.00
2023-01-30T19:08:05.247Z,7.42
2023-01-30T19:11:34.873Z,6.78
2023-01-30T19:14:28.963Z,5.50
2023-01-30T19:17:23.456Z,6.92
2023-01-30T19:20:21.481Z,7.28
2023-01-30T19:23:16.431Z,7.12
2023-01-30T19:26:12.486Z,6.30
2023-01-30T19:29:06.616Z,7.12
2023-01-30T19:32:02.323Z,5.30
2023-01-30T19:35:00.979Z,7.65
2023-01-30T19:40:52.636Z,7.92
2023-01-30T19:43:50.923Z,7.33
2023-01-30T19:46:47.475Z,7.70
2023-01-30T19:49:48.726Z,7.15
2023-01-30T19:52:46.217Z,6.87
2023-01-30T19:55:39.827Z,7.47
2023-01-30T19:58:33.385Z,6.75
2023-01-30T20:01:29.999Z,5.90
2023-01-30T20:04:24.821Z,6.22
2023-01-30T20:07:16.504Z,6.40
2023-01-30T20:10:09.065Z,6.40
2023-01-30T20:13:00.487Z,7.80
2023-01-30T20:15:53.418Z,6.15
2023-01-30T20:21:31.255Z,9.73
2023-01-30T20:24:22.987Z,7.70
2023-01-30T20:27:15.071Z,7.05
2023-01-30T20:30:08.916Z,7.33
2023-01-30T20:35:44.518Z,7.75
2023-01-30T20:38:38.309Z,6.03
2023-01-30T20:41:32.303Z,6.30
2023-01-30T20:44:24.512Z,6.03
2023-01-30T20:47:18.741Z,5.00
2023-01-30T20:50:13.945Z,4.80
2023-01-30T20:53:12.206Z,6.90
2023-01-30T20:56:06.446Z,9.10
2023-01-30T20:58:59.062Z,5.33
2023-01-30T21:04:41.818Z,3.85
2023-01-30T21:07:34.680Z,5.22
2023-01-30T21:10:26.389Z,5.55
2023-01-30T21:13:17.887Z,4.65
2023-01-30T21:16:12.542Z,5.37
2023-01-30T21:19:06.803Z,4.40
2023-01-30T21:21:59.727Z,3.90
2023-01-30T21:24:51.770Z,4.65
2023-01-30T21:27:44.068Z,5.17
2023-01-30T21:30:39.354Z,4.85
2023-01-30T21:33:31.679Z,4.53
2023-01-30T21:36:26.242Z,5.10
2023-01-30T21:39:35.324Z,4.62
2023-01-30T21:45:17.787Z,4.35
2023-01-30T21:48:09.845Z,4.83
2023-01-30T21:51:13.698Z,4.83
2023-01-30T21:54:06.923Z,4.33
2023-01-30T21:56:58.397Z,5.03
2023-01-30T21:59:51.016Z,5.03
2023-01-30T22:05:31.499Z,4.28
2023-01-30T22:08:22.968Z,5.05
2023-01-30T22:11:16.918Z,2.67
2023-01-30T22:14:08.630Z,5.35
2023-01-30T22:17:05.753Z,4.47
2023-01-30T22:22:42.123Z,3.60
2023-01-30T22:25:33.582Z,4.92
2023-01-30T22:28:24.973Z,4.87
2023-01-30T22:31:18.251Z,4.75
2023-01-30T22:34:09.855Z,4.90
2023-01-30T22:39:56.807Z,4.47
2023-01-30T22:42:50.681Z,4.22
2023-01-30T22:45:43.721Z,4.42
2023-01-30T22:48:36.200Z,4.30
2023-01-30T22:51:30.156Z,4.05
2023-01-30T22:54:21.543Z,3.92
2023-01-30T22:57:14.827Z,4.33
2023-01-30T23:00:08.863Z,3.30
2023-01-30T23:03:00.529Z,3.62
2023-01-30T23:22:32.823Z,3.35
2023-01-30T23:25:25.604Z,3.00
2023-01-30T23:28:17.218Z,2.95
2023-01-30T23:31:10.533Z,2.95
2023-01-30T23:34:04.036Z,3.15
2023-01-30T23:36:55.506Z,3.12
2023-01-30T23:39:47.485Z,3.22
2023-01-30T23:42:39.153Z,3.62
2023-01-30T23:45:31.288Z,5.50
2023-01-30T23:51:09.923Z,3.60
2023-01-30T23:54:01.630Z,4.85
2023-01-30T23:56:53.000Z,5.67
2023-01-30T23:59:44.484Z,5.97
